Grandview, Washington
Current Conditions -  °F | °C
As of 2:53 AM on Monday 22 Dec 2014 (Local Time) from KPSC Reporting Station
Clear Clear  
Wind Chill: 43°   Ceiling: Unl
Heat Index: 46°   Visibility: 10mi
Dew Point: 42°   Wind: 6mph
Humidity: 86%   Direction: 170°S
Pressure: 30.1"   Gusts: NA
Location:  46.26°N, 119.9°W
Report Text: KPSC 221053Z AUTO 17005KT 10SM CLR 08/06 A3010 RMK AO2 SLP193 T00780056
Loading
Personal Weather Stations






























Interactive Weather Map New forecast layout! Learn more

10-Day Weather Forecast

Advertisements
Track Severe Weather on mobile